sensor_id;sensor_type;location;lat;lon;timestamp;pressure;altitude;pressure_sealevel;temperature;humidity
76378;BME280;65200;49.500;8.654;2023-01-06T00:02:20;101108.53;;;10.26;88.88
76378;BME280;65200;49.500;8.654;2023-01-06T00:04:47;101118.72;;;10.30;87.93
76378;BME280;65200;49.500;8.654;2023-01-06T00:07:13;101109.84;;;10.30;89.44
76378;BME280;65200;49.500;8.654;2023-01-06T00:09:40;101101.00;;;10.21;89.12
76378;BME280;65200;49.500;8.654;2023-01-06T00:12:06;101100.00;;;10.14;89.47
76378;BME280;65200;49.500;8.654;2023-01-06T00:14:34;101104.69;;;10.12;90.95
76378;BME280;65200;49.500;8.654;2023-01-06T00:17:01;101098.13;;;10.07;91.61
76378;BME280;65200;49.500;8.654;2023-01-06T00:19:27;101106.31;;;10.05;91.34
76378;BME280;65200;49.500;8.654;2023-01-06T00:21:53;101102.66;;;10.06;90.78
76378;BME280;65200;49.500;8.654;2023-01-06T00:24:20;101092.75;;;10.07;91.84
76378;BME280;65200;49.500;8.654;2023-01-06T00:26:46;101081.75;;;10.02;92.22
76378;BME280;65200;49.500;8.654;2023-01-06T00:29:13;101076.53;;;10.00;91.89
76378;BME280;65200;49.500;8.654;2023-01-06T00:31:40;101079.56;;;9.97;92.32
76378;BME280;65200;49.500;8.654;2023-01-06T00:34:08;101085.41;;;10.01;91.89
76378;BME280;65200;49.500;8.654;2023-01-06T00:36:36;101082.22;;;9.97;91.58
76378;BME280;65200;49.500;8.654;2023-01-06T00:39:02;101069.50;;;9.99;91.78
76378;BME280;65200;49.500;8.654;2023-01-06T00:41:29;101073.56;;;9.95;91.27
76378;BME280;65200;49.500;8.654;2023-01-06T00:44:13;101070.53;;;9.90;92.38
76378;BME280;65200;49.500;8.654;2023-01-06T00:46:41;101083.94;;;9.90;91.56
76378;BME280;65200;49.500;8.654;2023-01-06T00:49:07;101077.56;;;9.91;92.60
76378;BME280;65200;49.500;8.654;2023-01-06T00:51:35;101080.75;;;9.95;91.19
76378;BME280;65200;49.500;8.654;2023-01-06T00:54:02;101079.22;;;10.00;92.01
76378;BME280;65200;49.500;8.654;2023-01-06T00:56:29;101071.34;;;9.99;91.67
76378;BME280;65200;49.500;8.654;2023-01-06T00:58:55;101078.72;;;10.05;90.69
76378;BME280;65200;49.500;8.654;2023-01-06T01:01:22;101078.56;;;10.06;90.85
76378;BME280;65200;49.500;8.654;2023-01-06T01:03:49;101073.19;;;10.06;90.91
76378;BME280;65200;49.500;8.654;2023-01-06T01:06:16;101073.06;;;10.08;90.32
76378;BME280;65200;49.500;8.654;2023-01-06T01:08:42;101066.66;;;10.01;91.73
76378;BME280;65200;49.500;8.654;2023-01-06T01:11:10;101065.50;;;10.03;91.60
76378;BME280;65200;49.500;8.654;2023-01-06T01:13:58;101057.31;;;9.97;90.54
76378;BME280;65200;49.500;8.654;2023-01-06T01:16:24;101055.63;;;10.12;89.89
76378;BME280;65200;49.500;8.654;2023-01-06T01:18:52;101064.16;;;10.15;89.76
76378;BME280;65200;49.500;8.654;2023-01-06T01:21:18;101055.78;;;10.18;90.76
76378;BME280;65200;49.500;8.654;2023-01-06T01:23:44;101060.81;;;10.21;90.48
76378;BME280;65200;49.500;8.654;2023-01-06T01:26:11;101066.81;;;10.23;90.71
76378;BME280;65200;49.500;8.654;2023-01-06T01:28:37;101073.03;;;10.24;89.58
76378;BME280;65200;49.500;8.654;2023-01-06T01:31:04;101068.16;;;10.27;89.85
76378;BME280;65200;49.500;8.654;2023-01-06T01:33:31;101059.28;;;10.27;90.12
76378;BME280;65200;49.500;8.654;2023-01-06T01:36:04;101062.81;;;10.27;89.17
76378;BME280;65200;49.500;8.654;2023-01-06T01:38:31;101063.47;;;10.29;89.85
76378;BME280;65200;49.500;8.654;2023-01-06T01:40:57;101068.50;;;10.24;89.91
76378;BME280;65200;49.500;8.654;2023-01-06T01:43:24;101058.78;;;10.23;89.45
76378;BME280;65200;49.500;8.654;2023-01-06T01:45:52;101057.78;;;10.24;89.59
76378;BME280;65200;49.500;8.654;2023-01-06T01:48:25;101056.94;;;10.24;89.61
76378;BME280;65200;49.500;8.654;2023-01-06T01:50:55;101056.09;;;10.23;89.98
76378;BME280;65200;49.500;8.654;2023-01-06T01:53:28;101062.31;;;10.24;89.60
76378;BME280;65200;49.500;8.654;2023-01-06T01:55:57;101056.28;;;10.22;91.00
76378;BME280;65200;49.500;8.654;2023-01-06T01:58:26;101068.00;;;10.21;90.81
76378;BME280;65200;49.500;8.654;2023-01-06T02:00:54;101066.50;;;10.18;90.60
76378;BME280;65200;49.500;8.654;2023-01-06T02:03:22;101068.34;;;10.18;90.58
76378;BME280;65200;49.500;8.654;2023-01-06T02:06:03;101060.34;;;10.10;90.87
76378;BME280;65200;49.500;8.654;2023-01-06T02:08:34;101056.13;;;10.07;91.54
76378;BME280;65200;49.500;8.654;2023-01-06T02:11:01;101050.75;;;10.07;91.77
76378;BME280;65200;49.500;8.654;2023-01-06T02:13:29;101049.91;;;10.07;91.57
76378;BME280;65200;49.500;8.654;2023-01-06T02:16:01;101049.91;;;10.07;91.74
76378;BME280;65200;49.500;8.654;2023-01-06T02:18:43;101046.75;;;10.03;91.18
76378;BME280;65200;49.500;8.654;2023-01-06T02:21:20;101051.63;;;10.08;91.25
76378;BME280;65200;49.500;8.654;2023-01-06T02:24:10;101055.16;;;10.08;90.25
76378;BME280;65200;49.500;8.654;2023-01-06T02:30:31;101035.88;;;10.13;89.98
76378;BME280;65200;49.500;8.654;2023-01-06T02:33:09;101027.84;;;10.13;90.58
76378;BME280;65200;49.500;8.654;2023-01-06T02:35:56;101033.22;;;10.13;90.14
76378;BME280;65200;49.500;8.654;2023-01-06T02:38:33;101045.41;;;10.15;90.62
76378;BME280;65200;49.500;8.654;2023-01-06T02:41:13;101038.56;;;10.13;90.84
76378;BME280;65200;49.500;8.654;2023-01-06T02:43:50;101041.41;;;10.19;89.99
76378;BME280;65200;49.500;8.654;2023-01-06T02:46:30;101041.06;;;10.22;89.51
76378;BME280;65200;49.500;8.654;2023-01-06T02:49:09;101038.03;;;10.25;89.38
76378;BME280;65200;49.500;8.654;2023-01-06T02:51:44;101039.38;;;10.29;90.62
76378;BME280;65200;49.500;8.654;2023-01-06T02:54:19;101045.53;;;10.30;90.36
76378;BME280;65200;49.500;8.654;2023-01-06T02:56:49;101047.41;;;10.29;89.54
76378;BME280;65200;49.500;8.654;2023-01-06T02:59:21;101052.75;;;10.29;90.27
76378;BME280;65200;49.500;8.654;2023-01-06T03:01:50;101049.41;;;10.27;90.52
76378;BME280;65200;49.500;8.654;2023-01-06T03:04:22;101053.25;;;10.25;90.98
76378;BME280;65200;49.500;8.654;2023-01-06T03:06:52;101050.25;;;10.20;91.45
76378;BME280;65200;49.500;8.654;2023-01-06T03:09:23;101047.75;;;10.18;90.57
76378;BME280;65200;49.500;8.654;2023-01-06T03:11:52;101051.28;;;10.19;91.46
76378;BME280;65200;49.500;8.654;2023-01-06T03:14:22;101046.25;;;10.16;91.72
76378;BME280;65200;49.500;8.654;2023-01-06T03:16:51;101039.25;;;10.15;91.53
76378;BME280;65200;49.500;8.654;2023-01-06T03:19:19;101043.75;;;10.14;91.91
76378;BME280;65200;49.500;8.654;2023-01-06T03:21:47;101034.19;;;10.12;90.71
76378;BME280;65200;49.500;8.654;2023-01-06T03:24:16;101036.25;;;10.10;91.76
76378;BME280;65200;49.500;8.654;2023-01-06T03:26:43;101039.38;;;10.05;91.94
76378;BME280;65200;49.500;8.654;2023-01-06T03:29:12;101039.72;;;10.10;91.47
76378;BME280;65200;49.500;8.654;2023-01-06T03:31:47;101044.28;;;10.10;91.78
76378;BME280;65200;49.500;8.654;2023-01-06T03:34:22;101038.25;;;10.08;90.69
76378;BME280;65200;49.500;8.654;2023-01-06T03:36:57;101041.78;;;10.08;91.91
76378;BME280;65200;49.500;8.654;2023-01-06T03:39:35;101043.25;;;10.03;91.79
76378;BME280;65200;49.500;8.654;2023-01-06T03:42:15;101038.22;;;10.00;91.50
76378;BME280;65200;49.500;8.654;2023-01-06T03:45:13;101032.53;;;10.03;92.05
76378;BME280;65200;49.500;8.654;2023-01-06T03:47:49;101028.84;;;10.04;91.92
76378;BME280;65200;49.500;8.654;2023-01-06T03:50:21;101024.66;;;10.01;91.27
76378;BME280;65200;49.500;8.654;2023-01-06T03:52:55;101030.03;;;10.01;91.23
76378;BME280;65200;49.500;8.654;2023-01-06T03:55:29;101028.34;;;10.00;91.89
76378;BME280;65200;49.500;8.654;2023-01-06T03:57:57;101027.16;;;10.03;91.17
76378;BME280;65200;49.500;8.654;2023-01-06T04:00:27;101024.16;;;9.98;91.19
76378;BME280;65200;49.500;8.654;2023-01-06T04:02:55;101024.31;;;10.04;91.50
76378;BME280;65200;49.500;8.654;2023-01-06T04:05:24;101014.94;;;10.00;91.97
76378;BME280;65200;49.500;8.654;2023-01-06T04:07:51;101020.63;;;10.05;90.73
76378;BME280;65200;49.500;8.654;2023-01-06T04:10:19;101004.41;;;9.99;91.43
76378;BME280;65200;49.500;8.654;2023-01-06T04:12:46;101018.63;;;10.07;91.29
76378;BME280;65200;49.500;8.654;2023-01-06T04:15:14;101005.94;;;10.09;91.17
76378;BME280;65200;49.500;8.654;2023-01-06T04:17:42;101000.91;;;10.06;91.11
76378;BME280;65200;49.500;8.654;2023-01-06T04:20:13;101010.25;;;10.02;90.88
76378;BME280;65200;49.500;8.654;2023-01-06T04:22:41;101005.41;;;10.06;91.55
76378;BME280;65200;49.500;8.654;2023-01-06T04:25:08;100997.72;;;10.03;91.05
76378;BME280;65200;49.500;8.654;2023-01-06T04:27:35;100998.38;;;10.05;91.77
76378;BME280;65200;49.500;8.654;2023-01-06T04:30:02;101000.75;;;10.08;91.39
76378;BME280;65200;49.500;8.654;2023-01-06T04:32:28;100994.88;;;10.04;91.89
76378;BME280;65200;49.500;8.654;2023-01-06T04:34:55;100975.44;;;10.10;90.30
76378;BME280;65200;49.500;8.654;2023-01-06T04:37:21;100985.00;;;10.13;90.30
76378;BME280;65200;49.500;8.654;2023-01-06T04:39:49;100983.97;;;10.14;90.03
76378;BME280;65200;49.500;8.654;2023-01-06T04:42:16;100987.50;;;10.14;90.54
76378;BME280;65200;49.500;8.654;2023-01-06T04:44:42;100964.88;;;10.17;90.86
76378;BME280;65200;49.500;8.654;2023-01-06T04:47:08;100967.56;;;10.17;90.94
76378;BME280;65200;49.500;8.654;2023-01-06T04:49:35;100972.59;;;10.12;91.06
76378;BME280;65200;49.500;8.654;2023-01-06T04:52:01;100967.41;;;10.10;90.90
76378;BME280;65200;49.500;8.654;2023-01-06T04:54:28;100968.44;;;10.09;90.16
76378;BME280;65200;49.500;8.654;2023-01-06T04:56:56;100958.56;;;10.10;90.39
76378;BME280;65200;49.500;8.654;2023-01-06T04:59:22;100957.91;;;10.08;90.79
76378;BME280;65200;49.500;8.654;2023-01-06T05:01:48;100964.22;;;10.07;89.30
76378;BME280;65200;49.500;8.654;2023-01-06T05:04:15;100956.88;;;10.09;89.22
76378;BME280;65200;49.500;8.654;2023-01-06T05:06:41;100953.69;;;10.05;89.36
76378;BME280;65200;49.500;8.654;2023-01-06T05:09:08;100955.88;;;10.02;90.86
76378;BME280;65200;49.500;8.654;2023-01-06T05:11:34;100967.91;;;10.06;89.07
76378;BME280;65200;49.500;8.654;2023-01-06T05:14:02;100965.22;;;10.06;89.00
76378;BME280;65200;49.500;8.654;2023-01-06T05:16:30;100959.38;;;10.02;89.05
76378;BME280;65200;49.500;8.654;2023-01-06T05:18:58;100959.56;;;10.01;89.41
76378;BME280;65200;49.500;8.654;2023-01-06T05:21:26;100967.72;;;10.07;89.95
76378;BME280;65200;49.500;8.654;2023-01-06T05:23:53;100966.06;;;10.06;88.48
76378;BME280;65200;49.500;8.654;2023-01-06T05:26:22;100965.22;;;10.06;88.58
76378;BME280;65200;49.500;8.654;2023-01-06T05:28:49;100975.78;;;10.07;89.74
76378;BME280;65200;49.500;8.654;2023-01-06T05:31:17;100982.16;;;10.06;88.32
76378;BME280;65200;49.500;8.654;2023-01-06T05:33:43;100981.13;;;10.07;89.65
76378;BME280;65200;49.500;8.654;2023-01-06T05:36:12;100988.50;;;10.05;89.28
76378;BME280;65200;49.500;8.654;2023-01-06T05:38:39;100981.81;;;10.01;89.07
76378;BME280;65200;49.500;8.654;2023-01-06T05:41:06;100985.47;;;10.00;89.86
76378;BME280;65200;49.500;8.654;2023-01-06T05:43:33;100991.88;;;9.99;88.96
76378;BME280;65200;49.500;8.654;2023-01-06T05:46:03;100987.34;;;10.00;89.58
76378;BME280;65200;49.500;8.654;2023-01-06T05:48:31;100998.72;;;10.02;90.27
76378;BME280;65200;49.500;8.654;2023-01-06T05:51:01;100993.88;;;9.97;90.59
76378;BME280;65200;49.500;8.654;2023-01-06T05:53:30;100990.69;;;9.94;89.92
76378;BME280;65200;49.500;8.654;2023-01-06T05:55:58;100987.03;;;9.95;89.42
76378;BME280;65200;49.500;8.654;2023-01-06T05:58:25;100986.88;;;9.88;90.24
76378;BME280;65200;49.500;8.654;2023-01-06T06:00:52;101003.28;;;9.85;91.13
76378;BME280;65200;49.500;8.654;2023-01-06T06:03:18;100988.19;;;9.84;90.71
76378;BME280;65200;49.500;8.654;2023-01-06T06:05:46;100987.41;;;9.76;91.68
76378;BME280;65200;49.500;8.654;2023-01-06T06:08:12;100991.91;;;9.75;91.59
76378;BME280;65200;49.500;8.654;2023-01-06T06:10:39;100991.56;;;9.78;90.56
76378;BME280;65200;49.500;8.654;2023-01-06T06:13:05;100998.75;;;9.77;90.78
76378;BME280;65200;49.500;8.654;2023-01-06T06:15:32;100992.09;;;9.73;90.73
76378;BME280;65200;49.500;8.654;2023-01-06T06:18:00;100998.59;;;9.79;90.33
76378;BME280;65200;49.500;8.654;2023-01-06T06:20:26;101009.00;;;9.74;91.40
76378;BME280;65200;49.500;8.654;2023-01-06T06:22:54;100999.94;;;9.75;91.35
76378;BME280;65200;49.500;8.654;2023-01-06T06:25:21;101010.16;;;9.71;91.11
76378;BME280;65200;49.500;8.654;2023-01-06T06:27:47;101006.63;;;9.71;92.31
76378;BME280;65200;49.500;8.654;2023-01-06T06:30:13;101012.31;;;9.68;91.70
76378;BME280;65200;49.500;8.654;2023-01-06T06:32:41;101010.66;;;9.67;91.07
76378;BME280;65200;49.500;8.654;2023-01-06T06:35:07;101009.31;;;9.63;91.75
76378;BME280;65200;49.500;8.654;2023-01-06T06:37:34;101013.34;;;9.59;91.93
76378;BME280;65200;49.500;8.654;2023-01-06T06:40:02;101008.00;;;9.59;92.74
76378;BME280;65200;49.500;8.654;2023-01-06T06:42:29;101009.97;;;9.65;91.95
76378;BME280;65200;49.500;8.654;2023-01-06T06:44:55;101018.19;;;9.63;91.26
76378;BME280;65200;49.500;8.654;2023-01-06T06:47:22;101026.03;;;9.65;91.74
76378;BME280;65200;49.500;8.654;2023-01-06T06:49:48;101024.03;;;9.59;91.86
76378;BME280;65200;49.500;8.654;2023-01-06T06:52:15;101024.03;;;9.59;92.56
76378;BME280;65200;49.500;8.654;2023-01-06T06:54:41;101021.88;;;9.54;93.25
76378;BME280;65200;49.500;8.654;2023-01-06T06:57:09;101028.72;;;9.49;92.53
76378;BME280;65200;49.500;8.654;2023-01-06T06:59:36;101038.06;;;9.45;93.12
76378;BME280;65200;49.500;8.654;2023-01-06T07:02:02;101028.56;;;9.42;92.82
76378;BME280;65200;49.500;8.654;2023-01-06T07:04:30;101029.75;;;9.40;94.20
76378;BME280;65200;49.500;8.654;2023-01-06T07:06:56;101035.22;;;9.38;92.81
76378;BME280;65200;49.500;8.654;2023-01-06T07:09:23;101030.38;;;9.42;92.60
76378;BME280;65200;49.500;8.654;2023-01-06T07:11:49;101034.25;;;9.39;93.07
76378;BME280;65200;49.500;8.654;2023-01-06T07:14:17;101042.44;;;9.38;93.13
76378;BME280;65200;49.500;8.654;2023-01-06T07:16:44;101045.44;;;9.35;94.30
76378;BME280;65200;49.500;8.654;2023-01-06T07:19:10;101057.81;;;9.36;95.02
76378;BME280;65200;49.500;8.654;2023-01-06T07:21:36;101055.47;;;9.33;93.38
76378;BME280;65200;49.500;8.654;2023-01-06T07:24:03;101053.78;;;9.32;95.01
76378;BME280;65200;49.500;8.654;2023-01-06T07:26:30;101061.16;;;9.30;95.17
76378;BME280;65200;49.500;8.654;2023-01-06T07:28:56;101051.09;;;9.32;92.81
76378;BME280;65200;49.500;8.654;2023-01-06T07:31:24;101068.16;;;9.31;92.92
76378;BME280;65200;49.500;8.654;2023-01-06T07:33:51;101065.31;;;9.32;92.83
76378;BME280;65200;49.500;8.654;2023-01-06T07:36:17;101061.00;;;9.31;92.92
76378;BME280;65200;49.500;8.654;2023-01-06T07:38:44;101075.69;;;9.35;92.33
76378;BME280;65200;49.500;8.654;2023-01-06T07:41:10;101074.03;;;9.34;90.93
76378;BME280;65200;49.500;8.654;2023-01-06T07:43:36;101076.88;;;9.33;89.99
76378;BME280;65200;49.500;8.654;2023-01-06T07:46:03;101074.34;;;9.31;91.33
76378;BME280;65200;49.500;8.654;2023-01-06T07:48:31;101079.88;;;9.30;90.94
76378;BME280;65200;49.500;8.654;2023-01-06T07:50:58;101086.88;;;9.31;91.25
76378;BME280;65200;49.500;8.654;2023-01-06T07:53:24;101090.41;;;9.31;90.40
76378;BME280;65200;49.500;8.654;2023-01-06T07:55:51;101082.22;;;9.33;89.72
76378;BME280;65200;49.500;8.654;2023-01-06T07:58:17;101089.91;;;9.36;90.18
76378;BME280;65200;49.500;8.654;2023-01-06T08:00:44;101107.94;;;9.34;92.20
76378;BME280;65200;49.500;8.654;2023-01-06T08:03:11;101109.66;;;9.35;91.14
76378;BME280;65200;49.500;8.654;2023-01-06T08:05:39;101109.16;;;9.39;91.65
76378;BME280;65200;49.500;8.654;2023-01-06T08:08:07;101107.31;;;9.40;89.93
76378;BME280;65200;49.500;8.654;2023-01-06T08:10:34;101119.84;;;9.39;88.19
76378;BME280;65200;49.500;8.654;2023-01-06T08:13:00;101102.44;;;9.35;86.82
76378;BME280;65200;49.500;8.654;2023-01-06T08:15:26;101114.69;;;9.54;82.47
76378;BME280;65200;49.500;8.654;2023-01-06T08:17:53;101117.19;;;9.47;82.85
76378;BME280;65200;49.500;8.654;2023-01-06T08:20:20;101118.34;;;9.45;83.21
76378;BME280;65200;49.500;8.654;2023-01-06T08:22:47;101115.00;;;9.43;81.64
76378;BME280;65200;49.500;8.654;2023-01-06T08:25:14;101118.66;;;9.42;84.12
76378;BME280;65200;49.500;8.654;2023-01-06T08:27:40;101120.69;;;9.40;83.44
76378;BME280;65200;49.500;8.654;2023-01-06T08:30:08;101119.69;;;9.41;83.98
76378;BME280;65200;49.500;8.654;2023-01-06T08:32:34;101115.00;;;9.43;83.10
76378;BME280;65200;49.500;8.654;2023-01-06T08:35:01;101114.84;;;9.44;84.44
76378;BME280;65200;49.500;8.654;2023-01-06T08:37:27;101119.38;;;9.52;83.64
76378;BME280;65200;49.500;8.654;2023-01-06T08:39:55;101118.22;;;9.62;83.36
76378;BME280;65200;49.500;8.654;2023-01-06T08:42:21;101110.66;;;9.66;79.99
76378;BME280;65200;49.500;8.654;2023-01-06T08:44:48;101110.53;;;9.67;81.33
76378;BME280;65200;49.500;8.654;2023-01-06T08:47:15;101100.31;;;9.71;80.59
76378;BME280;65200;49.500;8.654;2023-01-06T08:49:41;101100.97;;;9.73;80.31
76378;BME280;65200;49.500;8.654;2023-01-06T08:52:07;101100.66;;;9.76;79.89
76378;BME280;65200;49.500;8.654;2023-01-06T08:54:34;101098.66;;;9.78;80.42
76378;BME280;65200;49.500;8.654;2023-01-06T08:57:02;101104.69;;;9.80;80.61
76378;BME280;65200;49.500;8.654;2023-01-06T08:59:28;101114.03;;;9.84;80.81
76378;BME280;65200;49.500;8.654;2023-01-06T09:01:54;101114.19;;;9.83;80.30
76378;BME280;65200;49.500;8.654;2023-01-06T09:04:21;101104.50;;;9.82;81.78
76378;BME280;65200;49.500;8.654;2023-01-06T09:06:48;101105.34;;;9.82;81.61
76378;BME280;65200;49.500;8.654;2023-01-06T09:09:15;101104.00;;;9.86;83.23
76378;BME280;65200;49.500;8.654;2023-01-06T09:11:42;101088.94;;;9.93;82.45
76378;BME280;65200;49.500;8.654;2023-01-06T09:14:11;101096.47;;;9.98;83.00
76378;BME280;65200;49.500;8.654;2023-01-06T09:16:38;101088.94;;;10.01;82.90
76378;BME280;65200;49.500;8.654;2023-01-06T09:19:04;101087.91;;;10.02;81.81
76378;BME280;65200;49.500;8.654;2023-01-06T09:21:31;101073.19;;;10.06;82.32
76378;BME280;65200;49.500;8.654;2023-01-06T09:23:57;101082.91;;;10.07;82.44
76378;BME280;65200;49.500;8.654;2023-01-06T09:26:23;101076.69;;;9.99;83.29
76378;BME280;65200;49.500;8.654;2023-01-06T09:28:50;101068.50;;;10.00;81.42
76378;BME280;65200;49.500;8.654;2023-01-06T09:31:18;101071.50;;;10.05;82.35
76378;BME280;65200;49.500;8.654;2023-01-06T09:33:44;101064.16;;;10.07;81.82
76378;BME280;65200;49.500;8.654;2023-01-06T09:36:11;101073.91;;;10.08;81.01
76378;BME280;65200;49.500;8.654;2023-01-06T09:38:37;101079.53;;;10.05;81.97
76378;BME280;65200;49.500;8.654;2023-01-06T09:41:30;101093.63;;;9.99;82.21
76378;BME280;65200;49.500;8.654;2023-01-06T09:44:04;101102.00;;;9.96;82.98
76378;BME280;65200;49.500;8.654;2023-01-06T09:46:36;101105.00;;;9.93;82.98
76378;BME280;65200;49.500;8.654;2023-01-06T09:49:06;101110.69;;;9.98;83.27
76378;BME280;65200;49.500;8.654;2023-01-06T09:51:37;101104.31;;;9.99;83.04
76378;BME280;65200;49.500;8.654;2023-01-06T09:54:11;101108.66;;;10.00;82.94
76378;BME280;65200;49.500;8.654;2023-01-06T09:56:40;101107.00;;;10.07;82.39
76378;BME280;65200;49.500;8.654;2023-01-06T09:59:15;101107.53;;;10.11;80.93
76378;BME280;65200;49.500;8.654;2023-01-06T10:01:47;101097.31;;;10.14;81.68
76378;BME280;65200;49.500;8.654;2023-01-06T10:04:24;101089.78;;;10.18;81.67
76378;BME280;65200;49.500;8.654;2023-01-06T10:06:56;101085.56;;;10.23;80.00
76378;BME280;65200;49.500;8.654;2023-01-06T10:09:31;101086.41;;;10.32;79.74
76378;BME280;65200;49.500;8.654;2023-01-06T10:12:06;101091.25;;;10.36;80.19
76378;BME280;65200;49.500;8.654;2023-01-06T10:14:42;101098.75;;;10.41;79.58
76378;BME280;65200;49.500;8.654;2023-01-06T10:17:27;101101.94;;;10.44;79.24
76378;BME280;65200;49.500;8.654;2023-01-06T10:20:06;101100.44;;;10.50;79.48
76378;BME280;65200;49.500;8.654;2023-01-06T10:22:42;101105.97;;;10.48;78.97
76378;BME280;65200;49.500;8.654;2023-01-06T10:25:17;101110.66;;;10.46;78.88
76378;BME280;65200;49.500;8.654;2023-01-06T10:27:48;101099.78;;;10.40;78.72
76378;BME280;65200;49.500;8.654;2023-01-06T10:30:18;101095.63;;;10.37;78.43
76378;BME280;65200;49.500;8.654;2023-01-06T10:32:48;101101.28;;;10.34;79.90
76378;BME280;65200;49.500;8.654;2023-01-06T10:35:17;101095.47;;;10.31;79.79
76378;BME280;65200;49.500;8.654;2023-01-06T10:37:46;101099.63;;;10.33;79.08
76378;BME280;65200;49.500;8.654;2023-01-06T10:40:18;101106.81;;;10.33;79.71
76378;BME280;65200;49.500;8.654;2023-01-06T10:42:47;101098.78;;;10.33;79.33
76378;BME280;65200;49.500;8.654;2023-01-06T10:45:27;101091.94;;;10.30;79.18
76378;BME280;65200;49.500;8.654;2023-01-06T10:47:56;101104.47;;;10.30;78.46
76378;BME280;65200;49.500;8.654;2023-01-06T10:50:23;101103.84;;;10.28;79.72
76378;BME280;65200;49.500;8.654;2023-01-06T10:52:50;101101.47;;;10.25;79.37
76378;BME280;65200;49.500;8.654;2023-01-06T10:55:32;101102.31;;;10.25;79.37
76378;BME280;65200;49.500;8.654;2023-01-06T10:58:06;101103.00;;;10.27;78.58
76378;BME280;65200;49.500;8.654;2023-01-06T11:00:36;101112.69;;;10.28;79.65
76378;BME280;65200;49.500;8.654;2023-01-06T11:03:05;101107.00;;;10.31;79.31
76378;BME280;65200;49.500;8.654;2023-01-06T11:05:33;101098.59;;;10.34;79.94
76378;BME280;65200;49.500;8.654;2023-01-06T11:08:04;101103.66;;;10.37;79.88
76378;BME280;65200;49.500;8.654;2023-01-06T11:10:35;101100.97;;;10.37;79.91
76378;BME280;65200;49.500;8.654;2023-01-06T11:13:05;101100.44;;;10.42;79.11
76378;BME280;65200;49.500;8.654;2023-01-06T11:15:38;101094.91;;;10.43;78.83
76378;BME280;65200;49.500;8.654;2023-01-06T11:18:17;101095.91;;;10.50;78.24
76378;BME280;65200;49.500;8.654;2023-01-06T11:20:44;101087.53;;;10.53;78.23
76378;BME280;65200;49.500;8.654;2023-01-06T11:23:17;101089.50;;;10.59;76.52
76378;BME280;65200;49.500;8.654;2023-01-06T11:25:59;101075.56;;;10.64;75.54
76378;BME280;65200;49.500;8.654;2023-01-06T11:28:26;101070.56;;;10.61;75.64
76378;BME280;65200;49.500;8.654;2023-01-06T11:30:54;101072.09;;;10.63;75.60
76378;BME280;65200;49.500;8.654;2023-01-06T11:33:26;101082.78;;;10.71;73.21
76378;BME280;65200;49.500;8.654;2023-01-06T11:35:53;101069.38;;;10.71;73.77
76378;BME280;65200;49.500;8.654;2023-01-06T11:38:21;101071.38;;;10.69;74.05
76378;BME280;65200;49.500;8.654;2023-01-06T11:40:49;101062.84;;;10.66;73.54
76378;BME280;65200;49.500;8.654;2023-01-06T11:43:28;101062.00;;;10.65;73.99
76378;BME280;65200;49.500;8.654;2023-01-06T11:45:59;101065.03;;;10.62;74.17
76378;BME280;65200;49.500;8.654;2023-01-06T11:48:30;101063.03;;;10.64;74.09
76378;BME280;65200;49.500;8.654;2023-01-06T11:50:58;101058.53;;;10.57;75.18
76378;BME280;65200;49.500;8.654;2023-01-06T11:53:25;101069.06;;;10.66;73.42
76378;BME280;65200;49.500;8.654;2023-01-06T11:55:55;101060.00;;;10.67;74.23
76378;BME280;65200;49.500;8.654;2023-01-06T11:58:28;101053.63;;;10.68;74.09
76378;BME280;65200;49.500;8.654;2023-01-06T12:01:00;101050.09;;;10.68;74.58
76378;BME280;65200;49.500;8.654;2023-01-06T12:03:33;101034.69;;;10.70;74.74
76378;BME280;65200;49.500;8.654;2023-01-06T12:06:18;101042.22;;;10.74;74.03
76378;BME280;65200;49.500;8.654;2023-01-06T12:08:54;101035.66;;;10.77;73.75
76378;BME280;65200;49.500;8.654;2023-01-06T12:11:30;101037.47;;;10.84;73.64
76378;BME280;65200;49.500;8.654;2023-01-06T12:14:02;101022.50;;;10.90;72.92
76378;BME280;65200;49.500;8.654;2023-01-06T12:16:34;101020.97;;;10.95;72.71
76378;BME280;65200;49.500;8.654;2023-01-06T12:19:17;101022.22;;;11.07;73.08
76378;BME280;65200;49.500;8.654;2023-01-06T12:21:46;101015.81;;;11.17;70.29
76378;BME280;65200;49.500;8.654;2023-01-06T12:24:15;101021.00;;;11.18;70.33
76378;BME280;65200;49.500;8.654;2023-01-06T12:26:45;101023.31;;;11.21;71.24
76378;BME280;65200;49.500;8.654;2023-01-06T12:29:13;101028.19;;;11.18;69.93
76378;BME280;65200;49.500;8.654;2023-01-06T12:31:49;101031.47;;;11.05;69.81
76378;BME280;65200;49.500;8.654;2023-01-06T12:34:21;101031.00;;;11.01;69.35
76378;BME280;65200;49.500;8.654;2023-01-06T12:36:53;101039.03;;;11.01;69.10
76378;BME280;65200;49.500;8.654;2023-01-06T12:39:25;101033.72;;;10.93;69.88
76378;BME280;65200;49.500;8.654;2023-01-06T12:41:56;101035.09;;;10.89;69.92
76378;BME280;65200;49.500;8.654;2023-01-06T12:44:36;101031.22;;;10.92;70.84
76378;BME280;65200;49.500;8.654;2023-01-06T12:47:12;101022.50;;;10.90;70.17
76378;BME280;65200;49.500;8.654;2023-01-06T12:49:44;101033.22;;;10.90;71.12
76378;BME280;65200;49.500;8.654;2023-01-06T12:52:16;101036.41;;;10.93;70.04
76378;BME280;65200;49.500;8.654;2023-01-06T12:54:49;101038.78;;;10.88;69.81
76378;BME280;65200;49.500;8.654;2023-01-06T12:57:24;101039.09;;;10.93;70.35
76378;BME280;65200;49.500;8.654;2023-01-06T13:00:02;101032.75;;;10.86;70.45
76378;BME280;65200;49.500;8.654;2023-01-06T13:02:46;101042.16;;;10.82;72.00
76378;BME280;65200;49.500;8.654;2023-01-06T13:05:28;101045.16;;;10.87;71.10
76378;BME280;65200;49.500;8.654;2023-01-06T13:08:11;101042.84;;;10.84;71.51
76378;BME280;65200;49.500;8.654;2023-01-06T13:10:43;101045.97;;;10.88;72.73